sensor_id;sensor_type;location;lat;lon;timestamp;pressure;altitude;pressure_sealevel;temperature;humidity
74524;BME280;63074;44.696;10.358;2023-03-04T00:01:50;100243.44;;;5.88;100.00
74524;BME280;63074;44.696;10.358;2023-03-04T00:04:16;100250.69;;;6.00;100.00
74524;BME280;63074;44.696;10.358;2023-03-04T00:06:43;100254.22;;;6.14;100.00
74524;BME280;63074;44.696;10.358;2023-03-04T00:09:09;100258.75;;;6.20;100.00
74524;BME280;63074;44.696;10.358;2023-03-04T00:11:35;100248.72;;;6.29;100.00
74524;BME280;63074;44.696;10.358;2023-03-04T00:14:01;100251.19;;;6.43;100.00
74524;BME280;63074;44.696;10.358;2023-03-04T00:16:27;100255.91;;;6.48;100.00
74524;BME280;63074;44.696;10.358;2023-03-04T00:18:55;100253.84;;;6.43;100.00
74524;BME280;63074;44.696;10.358;2023-03-04T00:21:21;100249.34;;;6.51;100.00
74524;BME280;63074;44.696;10.358;2023-03-04T00:23:48;100260.47;;;6.61;100.00
74524;BME280;63074;44.696;10.358;2023-03-04T00:26:14;100254.69;;;6.51;100.00
74524;BME280;63074;44.696;10.358;2023-03-04T00:28:41;100252.41;;;6.41;100.00
74524;BME280;63074;44.696;10.358;2023-03-04T00:31:07;100254.25;;;6.40;100.00
74524;BME280;63074;44.696;10.358;2023-03-04T00:33:34;100261.25;;;6.41;100.00
74524;BME280;63074;44.696;10.358;2023-03-04T00:36:01;100262.47;;;6.32;100.00
74524;BME280;63074;44.696;10.358;2023-03-04T00:38:29;100252.97;;;6.10;100.00
74524;BME280;63074;44.696;10.358;2023-03-04T00:40:56;100257.88;;;6.00;100.00
74524;BME280;63074;44.696;10.358;2023-03-04T00:43:22;100252.81;;;5.70;100.00
74524;BME280;63074;44.696;10.358;2023-03-04T00:45:48;100256.53;;;5.83;100.00
74524;BME280;63074;44.696;10.358;2023-03-04T00:48:15;100248.00;;;5.53;100.00
74524;BME280;63074;44.696;10.358;2023-03-04T00:50:42;100253.13;;;5.54;100.00
74524;BME280;63074;44.696;10.358;2023-03-04T00:53:08;100250.28;;;5.56;100.00
74524;BME280;63074;44.696;10.358;2023-03-04T00:55:35;100251.56;;;5.66;100.00
74524;BME280;63074;44.696;10.358;2023-03-04T00:58:01;100252.31;;;5.54;100.00
74524;BME280;63074;44.696;10.358;2023-03-04T01:00:28;100249.72;;;5.67;100.00
74524;BME280;63074;44.696;10.358;2023-03-04T01:02:54;100255.03;;;5.26;100.00
74524;BME280;63074;44.696;10.358;2023-03-04T01:05:21;100250.25;;;5.15;100.00
74524;BME280;63074;44.696;10.358;2023-03-04T01:07:47;100241.28;;;5.22;100.00
74524;BME280;63074;44.696;10.358;2023-03-04T01:10:14;100234.66;;;5.12;100.00
74524;BME280;63074;44.696;10.358;2023-03-04T01:12:41;100222.72;;;5.35;100.00
74524;BME280;63074;44.696;10.358;2023-03-04T01:15:09;100220.94;;;5.56;100.00
74524;BME280;63074;44.696;10.358;2023-03-04T01:17:36;100217.25;;;5.57;100.00
74524;BME280;63074;44.696;10.358;2023-03-04T01:20:04;100213.38;;;5.59;100.00
74524;BME280;63074;44.696;10.358;2023-03-04T01:22:30;100205.16;;;5.54;100.00
74524;BME280;63074;44.696;10.358;2023-03-04T01:24:56;100208.22;;;5.51;100.00
74524;BME280;63074;44.696;10.358;2023-03-04T01:27:22;100209.50;;;5.62;100.00
74524;BME280;63074;44.696;10.358;2023-03-04T01:29:48;100208.78;;;5.40;100.00
74524;BME280;63074;44.696;10.358;2023-03-04T01:32:15;100208.91;;;5.66;100.00
74524;BME280;63074;44.696;10.358;2023-03-04T01:34:41;100211.63;;;5.32;100.00
74524;BME280;63074;44.696;10.358;2023-03-04T01:37:07;100208.75;;;5.33;100.00
74524;BME280;63074;44.696;10.358;2023-03-04T01:39:34;100204.41;;;5.26;100.00
74524;BME280;63074;44.696;10.358;2023-03-04T01:42:00;100202.94;;;5.23;100.00
74524;BME280;63074;44.696;10.358;2023-03-04T01:44:26;100216.16;;;5.03;100.00
74524;BME280;63074;44.696;10.358;2023-03-04T01:46:54;100203.56;;;4.84;100.00
74524;BME280;63074;44.696;10.358;2023-03-04T01:49:21;100201.47;;;4.80;100.00
74524;BME280;63074;44.696;10.358;2023-03-04T01:51:53;100199.69;;;4.87;100.00
74524;BME280;63074;44.696;10.358;2023-03-04T01:54:20;100190.78;;;5.07;100.00
74524;BME280;63074;44.696;10.358;2023-03-04T01:56:48;100190.97;;;5.06;100.00
74524;BME280;63074;44.696;10.358;2023-03-04T01:59:21;100185.69;;;5.13;100.00
74524;BME280;63074;44.696;10.358;2023-03-04T02:01:50;100194.69;;;4.77;100.00
74524;BME280;63074;44.696;10.358;2023-03-04T02:04:20;100191.91;;;4.64;100.00
74524;BME280;63074;44.696;10.358;2023-03-04T02:06:48;100199.50;;;4.95;100.00
74524;BME280;63074;44.696;10.358;2023-03-04T02:09:15;100193.06;;;5.11;100.00
74524;BME280;63074;44.696;10.358;2023-03-04T02:11:43;100194.94;;;4.82;100.00
74524;BME280;63074;44.696;10.358;2023-03-04T02:14:10;100194.44;;;4.72;100.00
74524;BME280;63074;44.696;10.358;2023-03-04T02:16:37;100188.38;;;5.13;100.00
74524;BME280;63074;44.696;10.358;2023-03-04T02:19:15;100185.78;;;5.32;100.00
74524;BME280;63074;44.696;10.358;2023-03-04T02:21:44;100185.00;;;5.38;100.00
74524;BME280;63074;44.696;10.358;2023-03-04T02:24:31;100184.97;;;5.32;100.00
74524;BME280;63074;44.696;10.358;2023-03-04T02:26:59;100181.28;;;5.33;100.00
74524;BME280;63074;44.696;10.358;2023-03-04T02:29:25;100183.16;;;5.39;100.00
74524;BME280;63074;44.696;10.358;2023-03-04T02:31:53;100187.94;;;5.57;100.00
74524;BME280;63074;44.696;10.358;2023-03-04T02:34:22;100178.06;;;5.44;100.00
74524;BME280;63074;44.696;10.358;2023-03-04T02:36:51;100182.97;;;5.40;100.00
74524;BME280;63074;44.696;10.358;2023-03-04T02:41:53;100180.03;;;5.29;100.00
74524;BME280;63074;44.696;10.358;2023-03-04T02:44:30;100182.69;;;5.29;100.00
74524;BME280;63074;44.696;10.358;2023-03-04T02:46:57;100187.16;;;5.22;100.00
74524;BME280;63074;44.696;10.358;2023-03-04T02:49:25;100186.84;;;5.38;100.00
74524;BME280;63074;44.696;10.358;2023-03-04T02:51:57;100185.13;;;5.24;100.00
74524;BME280;63074;44.696;10.358;2023-03-04T02:54:24;100186.56;;;5.20;100.00
74524;BME280;63074;44.696;10.358;2023-03-04T02:56:52;100187.41;;;5.27;100.00
74524;BME280;63074;44.696;10.358;2023-03-04T02:59:20;100194.59;;;5.33;100.00
74524;BME280;63074;44.696;10.358;2023-03-04T03:01:46;100191.06;;;5.26;100.00
74524;BME280;63074;44.696;10.358;2023-03-04T03:04:13;100189.75;;;5.43;100.00
74524;BME280;63074;44.696;10.358;2023-03-04T03:06:39;100183.94;;;5.33;100.00
74524;BME280;63074;44.696;10.358;2023-03-04T03:09:05;100189.41;;;4.84;100.00
74524;BME280;63074;44.696;10.358;2023-03-04T03:11:32;100188.66;;;4.62;100.00
74524;BME280;63074;44.696;10.358;2023-03-04T03:13:59;100183.03;;;4.78;100.00
74524;BME280;63074;44.696;10.358;2023-03-04T03:16:25;100181.38;;;4.77;100.00
74524;BME280;63074;44.696;10.358;2023-03-04T03:18:51;100183.16;;;4.70;100.00
74524;BME280;63074;44.696;10.358;2023-03-04T03:21:17;100180.81;;;4.54;100.00
74524;BME280;63074;44.696;10.358;2023-03-04T03:23:44;100185.19;;;4.68;100.00
74524;BME280;63074;44.696;10.358;2023-03-04T03:26:10;100176.88;;;4.78;100.00
74524;BME280;63074;44.696;10.358;2023-03-04T03:28:36;100184.91;;;4.84;100.00
74524;BME280;63074;44.696;10.358;2023-03-04T03:31:02;100176.25;;;4.75;100.00
74524;BME280;63074;44.696;10.358;2023-03-04T03:33:29;100176.44;;;4.74;100.00
74524;BME280;63074;44.696;10.358;2023-03-04T03:35:55;100181.44;;;4.84;100.00
74524;BME280;63074;44.696;10.358;2023-03-04T03:38:21;100176.19;;;4.69;100.00
74524;BME280;63074;44.696;10.358;2023-03-04T03:40:47;100182.16;;;4.71;100.00
74524;BME280;63074;44.696;10.358;2023-03-04T03:43:14;100179.34;;;4.79;100.00
74524;BME280;63074;44.696;10.358;2023-03-04T03:45:40;100180.56;;;4.77;100.00
74524;BME280;63074;44.696;10.358;2023-03-04T03:48:06;100182.38;;;4.76;100.00
74524;BME280;63074;44.696;10.358;2023-03-04T03:50:32;100180.88;;;4.67;100.00
74524;BME280;63074;44.696;10.358;2023-03-04T03:52:58;100182.63;;;4.81;100.00
74524;BME280;63074;44.696;10.358;2023-03-04T03:55:25;100173.19;;;4.51;100.00
74524;BME280;63074;44.696;10.358;2023-03-04T03:57:52;100176.13;;;4.34;100.00
74524;BME280;63074;44.696;10.358;2023-03-04T04:00:18;100176.34;;;4.33;100.00
74524;BME280;63074;44.696;10.358;2023-03-04T04:02:44;100170.69;;;4.21;100.00
74524;BME280;63074;44.696;10.358;2023-03-04T04:05:11;100174.19;;;4.22;100.00
74524;BME280;63074;44.696;10.358;2023-03-04T04:07:37;100166.84;;;4.24;100.00
74524;BME280;63074;44.696;10.358;2023-03-04T04:10:05;100164.19;;;4.24;100.00
74524;BME280;63074;44.696;10.358;2023-03-04T04:12:31;100168.28;;;4.26;100.00
74524;BME280;63074;44.696;10.358;2023-03-04T04:14:57;100168.56;;;4.31;100.00
74524;BME280;63074;44.696;10.358;2023-03-04T04:17:24;100167.91;;;4.29;100.00
74524;BME280;63074;44.696;10.358;2023-03-04T04:19:50;100171.34;;;4.23;100.00
74524;BME280;63074;44.696;10.358;2023-03-04T04:22:18;100174.88;;;4.30;100.00
74524;BME280;63074;44.696;10.358;2023-03-04T04:24:46;100168.78;;;4.36;100.00
74524;BME280;63074;44.696;10.358;2023-03-04T04:27:12;100167.72;;;4.31;100.00
74524;BME280;63074;44.696;10.358;2023-03-04T04:29:39;100166.66;;;4.25;100.00
74524;BME280;63074;44.696;10.358;2023-03-04T04:32:06;100166.03;;;4.23;100.00
74524;BME280;63074;44.696;10.358;2023-03-04T04:34:33;100169.50;;;4.24;100.00
74524;BME280;63074;44.696;10.358;2023-03-04T04:37:00;100165.63;;;4.26;100.00
74524;BME280;63074;44.696;10.358;2023-03-04T04:39:26;100160.69;;;4.23;100.00
74524;BME280;63074;44.696;10.358;2023-03-04T04:41:52;100169.06;;;4.20;100.00
74524;BME280;63074;44.696;10.358;2023-03-04T04:44:18;100165.38;;;4.21;100.00
74524;BME280;63074;44.696;10.358;2023-03-04T04:46:44;100156.38;;;4.22;100.00
74524;BME280;63074;44.696;10.358;2023-03-04T04:49:10;100156.31;;;4.16;100.00
74524;BME280;63074;44.696;10.358;2023-03-04T04:51:37;100157.72;;;4.33;100.00
74524;BME280;63074;44.696;10.358;2023-03-04T04:54:04;100158.03;;;4.23;100.00
74524;BME280;63074;44.696;10.358;2023-03-04T04:56:31;100157.53;;;4.13;100.00
74524;BME280;63074;44.696;10.358;2023-03-04T04:58:59;100162.41;;;4.31;100.00
74524;BME280;63074;44.696;10.358;2023-03-04T05:01:26;100157.72;;;4.33;100.00
74524;BME280;63074;44.696;10.358;2023-03-04T05:03:53;100156.06;;;4.11;100.00
74524;BME280;63074;44.696;10.358;2023-03-04T05:06:21;100155.00;;;4.26;100.00
74524;BME280;63074;44.696;10.358;2023-03-04T05:08:48;100155.84;;;4.55;100.00
74524;BME280;63074;44.696;10.358;2023-03-04T05:11:15;100154.56;;;4.51;100.00
74524;BME280;63074;44.696;10.358;2023-03-04T05:13:41;100150.97;;;4.37;100.00
74524;BME280;63074;44.696;10.358;2023-03-04T05:16:08;100150.56;;;4.12;100.00
74524;BME280;63074;44.696;10.358;2023-03-04T05:18:34;100148.75;;;4.40;100.00
74524;BME280;63074;44.696;10.358;2023-03-04T05:21:02;100150.59;;;4.68;100.00
74524;BME280;63074;44.696;10.358;2023-03-04T05:23:34;100147.41;;;4.51;100.00
74524;BME280;63074;44.696;10.358;2023-03-04T05:26:01;100157.38;;;4.43;100.00
74524;BME280;63074;44.696;10.358;2023-03-04T05:28:27;100166.03;;;4.51;100.00
74524;BME280;63074;44.696;10.358;2023-03-04T05:30:54;100157.19;;;4.44;100.00
74524;BME280;63074;44.696;10.358;2023-03-04T05:33:20;100162.13;;;4.47;100.00
74524;BME280;63074;44.696;10.358;2023-03-04T05:35:47;100158.69;;;4.53;100.00
74524;BME280;63074;44.696;10.358;2023-03-04T05:38:15;100167.31;;;4.55;100.00
74524;BME280;63074;44.696;10.358;2023-03-04T05:40:42;100156.09;;;4.60;100.00
74524;BME280;63074;44.696;10.358;2023-03-04T05:43:09;100157.50;;;4.62;100.00
74524;BME280;63074;44.696;10.358;2023-03-04T05:45:36;100161.59;;;4.58;100.00
74524;BME280;63074;44.696;10.358;2023-03-04T05:48:03;100158.94;;;4.58;100.00
74524;BME280;63074;44.696;10.358;2023-03-04T05:50:29;100164.53;;;4.70;100.00
74524;BME280;63074;44.696;10.358;2023-03-04T05:52:56;100162.03;;;4.62;100.00
74524;BME280;63074;44.696;10.358;2023-03-04T05:55:22;100169.53;;;4.52;100.00
74524;BME280;63074;44.696;10.358;2023-03-04T05:57:48;100169.78;;;4.57;100.00
74524;BME280;63074;44.696;10.358;2023-03-04T06:00:15;100172.63;;;4.55;100.00
74524;BME280;63074;44.696;10.358;2023-03-04T06:02:43;100173.06;;;4.59;100.00
74524;BME280;63074;44.696;10.358;2023-03-04T06:05:10;100172.47;;;4.63;100.00
74524;BME280;63074;44.696;10.358;2023-03-04T06:07:37;100177.22;;;4.68;100.00
74524;BME280;63074;44.696;10.358;2023-03-04T06:10:04;100177.69;;;4.78;100.00
74524;BME280;63074;44.696;10.358;2023-03-04T06:12:31;100180.16;;;4.80;100.00
74524;BME280;63074;44.696;10.358;2023-03-04T06:14:57;100185.53;;;4.86;100.00
74524;BME280;63074;44.696;10.358;2023-03-04T06:17:23;100178.00;;;4.96;100.00
74524;BME280;63074;44.696;10.358;2023-03-04T06:19:49;100183.03;;;4.78;100.00
74524;BME280;63074;44.696;10.358;2023-03-04T06:22:15;100193.28;;;4.81;100.00
74524;BME280;63074;44.696;10.358;2023-03-04T06:24:42;100184.91;;;4.84;100.00
74524;BME280;63074;44.696;10.358;2023-03-04T06:27:08;100182.63;;;4.81;100.00
74524;BME280;63074;44.696;10.358;2023-03-04T06:29:34;100181.06;;;4.93;100.00
74524;BME280;63074;44.696;10.358;2023-03-04T06:32:00;100181.09;;;5.00;100.00
74524;BME280;63074;44.696;10.358;2023-03-04T06:34:26;100182.75;;;5.01;100.00
74524;BME280;63074;44.696;10.358;2023-03-04T06:36:54;100183.03;;;5.13;100.00
74524;BME280;63074;44.696;10.358;2023-03-04T06:39:21;100190.03;;;5.20;100.00
74524;BME280;63074;44.696;10.358;2023-03-04T06:41:47;100188.16;;;5.14;100.00
74524;BME280;63074;44.696;10.358;2023-03-04T06:44:13;100197.03;;;5.28;100.00
74524;BME280;63074;44.696;10.358;2023-03-04T06:46:39;100196.41;;;5.26;100.00
74524;BME280;63074;44.696;10.358;2023-03-04T06:49:05;100195.03;;;5.36;100.00
74524;BME280;63074;44.696;10.358;2023-03-04T06:51:31;100197.78;;;5.56;100.00
74524;BME280;63074;44.696;10.358;2023-03-04T06:53:58;100203.34;;;5.61;100.00
74524;BME280;63074;44.696;10.358;2023-03-04T06:56:24;100203.56;;;5.66;100.00
74524;BME280;63074;44.696;10.358;2023-03-04T06:58:50;100200.94;;;5.73;100.00
74524;BME280;63074;44.696;10.358;2023-03-04T07:01:17;100205.03;;;5.82;100.00
74524;BME280;63074;44.696;10.358;2023-03-04T07:03:45;100202.22;;;5.90;100.00
74524;BME280;63074;44.696;10.358;2023-03-04T07:06:13;100204.09;;;5.96;100.00
74524;BME280;63074;44.696;10.358;2023-03-04T07:08:40;100208.84;;;6.01;100.00
74524;BME280;63074;44.696;10.358;2023-03-04T07:11:07;100202.47;;;6.08;100.00
74524;BME280;63074;44.696;10.358;2023-03-04T07:13:34;100209.88;;;6.20;100.00
74524;BME280;63074;44.696;10.358;2023-03-04T07:16:04;100205.97;;;6.16;100.00
74524;BME280;63074;44.696;10.358;2023-03-04T07:18:31;100211.13;;;6.24;100.00
74524;BME280;63074;44.696;10.358;2023-03-04T07:20:57;100207.84;;;6.28;100.00
74524;BME280;63074;44.696;10.358;2023-03-04T07:23:23;100207.44;;;6.31;100.00
74524;BME280;63074;44.696;10.358;2023-03-04T07:25:50;100211.78;;;6.32;100.00
74524;BME280;63074;44.696;10.358;2023-03-04T07:28:17;100211.56;;;6.34;100.00
74524;BME280;63074;44.696;10.358;2023-03-04T07:30:43;100215.66;;;6.50;100.00
74524;BME280;63074;44.696;10.358;2023-03-04T07:33:09;100206.84;;;6.75;100.00
74524;BME280;63074;44.696;10.358;2023-03-04T07:35:36;100211.31;;;6.95;100.00
74524;BME280;63074;44.696;10.358;2023-03-04T07:38:02;100215.44;;;7.10;100.00
74524;BME280;63074;44.696;10.358;2023-03-04T07:40:28;100206.53;;;7.30;100.00
74524;BME280;63074;44.696;10.358;2023-03-04T07:42:56;100213.28;;;7.39;100.00
74524;BME280;63074;44.696;10.358;2023-03-04T07:45:23;100208.13;;;7.44;100.00
74524;BME280;63074;44.696;10.358;2023-03-04T07:47:50;100209.53;;;7.53;100.00
74524;BME280;63074;44.696;10.358;2023-03-04T07:50:17;100209.75;;;7.52;100.00
74524;BME280;63074;44.696;10.358;2023-03-04T07:52:45;100206.84;;;7.53;100.00
74524;BME280;63074;44.696;10.358;2023-03-04T07:55:14;100206.22;;;7.58;100.00
74524;BME280;63074;44.696;10.358;2023-03-04T07:57:41;100209.72;;;7.58;100.00
74524;BME280;63074;44.696;10.358;2023-03-04T08:00:09;100200.25;;;7.56;100.00
74524;BME280;63074;44.696;10.358;2023-03-04T08:02:35;100206.41;;;7.63;100.00
74524;BME280;63074;44.696;10.358;2023-03-04T08:05:01;100207.22;;;7.70;100.00
74524;BME280;63074;44.696;10.358;2023-03-04T08:07:27;100211.28;;;7.79;100.00
74524;BME280;63074;44.696;10.358;2023-03-04T08:09:54;100199.72;;;7.85;100.00
74524;BME280;63074;44.696;10.358;2023-03-04T08:12:20;100202.19;;;7.87;100.00
74524;BME280;63074;44.696;10.358;2023-03-04T08:14:46;100200.94;;;7.89;100.00
74524;BME280;63074;44.696;10.358;2023-03-04T08:17:12;100201.94;;;7.95;100.00
74524;BME280;63074;44.696;10.358;2023-03-04T08:19:40;100202.72;;;8.02;100.00
74524;BME280;63074;44.696;10.358;2023-03-04T08:22:06;100202.66;;;8.08;100.00
74524;BME280;63074;44.696;10.358;2023-03-04T08:24:33;100199.91;;;8.22;100.00
74524;BME280;63074;44.696;10.358;2023-03-04T08:26:59;100202.81;;;8.20;100.00
